Tapira, Brazil
Current Conditions -  °F | °C
As of 7:00 AM on Friday 31 Oct 2014 (Local Time) from SBMG Reporting Station
Few Clouds Few Clouds  
Wind Chill: 70°   Ceiling: Unl
Heat Index: 70°   Visibility: 6mi
Dew Point: 64°   Wind: 6mph
Humidity: 83%   Direction: 350°N
Pressure: 29.88"   Gusts: NA
Location:  23.32°S, 53.07°W
Report Text: SBMG 310900Z 35005KT 9999 FEW010 21/18 Q1012
Loading
Personal Weather Stations






























Interactive Weather Map
Tropical Storm Tracking
New forecast layout! Learn more

10-Day Weather Forecast

Advertisements
Track Severe Weather on mobile